createdAt,value
2018-10-19T00:01:38.671Z,13.61
2018-10-19T00:04:06.775Z,13.54
2018-10-19T00:06:34.888Z,13.60
2018-10-19T00:09:03.482Z,13.68
2018-10-19T00:11:31.512Z,13.71
2018-10-19T00:13:59.595Z,13.66
2018-10-19T00:16:27.708Z,13.71
2018-10-19T00:18:55.782Z,13.59
2018-10-19T00:21:23.921Z,13.53
2018-10-19T00:23:51.999Z,13.39
2018-10-19T00:26:20.088Z,13.47
2018-10-19T00:28:48.180Z,13.49
2018-10-19T00:31:16.287Z,13.34
2018-10-19T00:33:44.399Z,13.35
2018-10-19T00:36:12.512Z,13.31
2018-10-19T00:38:40.585Z,13.41
2018-10-19T00:41:08.743Z,13.35
2018-10-19T00:43:36.805Z,13.29
2018-10-19T00:46:05.311Z,13.28
2018-10-19T00:48:33.435Z,13.28
2018-10-19T00:51:01.573Z,13.21
2018-10-19T00:53:29.646Z,13.32
2018-10-19T00:55:57.727Z,13.21
2018-10-19T00:58:25.880Z,13.29
2018-10-19T01:00:53.967Z,13.18
2018-10-19T01:03:22.076Z,13.07
2018-10-19T01:05:50.151Z,13.10
2018-10-19T01:08:18.247Z,13.07
2018-10-19T01:10:46.367Z,13.02
2018-10-19T01:13:14.465Z,13.11
2018-10-19T01:15:42.548Z,13.05
2018-10-19T01:18:10.649Z,13.11
2018-10-19T01:20:38.747Z,13.11
2018-10-19T01:23:06.891Z,13.11
2018-10-19T01:25:34.972Z,13.07
2018-10-19T01:28:03.157Z,13.09
2018-10-19T01:30:31.333Z,13.13
2018-10-19T01:32:59.463Z,13.11
2018-10-19T01:35:27.632Z,13.03
2018-10-19T01:37:55.768Z,12.96
2018-10-19T01:40:23.869Z,12.96
2018-10-19T01:42:51.975Z,12.89
2018-10-19T01:45:20.078Z,12.93
2018-10-19T01:47:48.187Z,12.95
2018-10-19T01:50:16.291Z,13.00
2018-10-19T01:52:44.389Z,12.90
2018-10-19T01:55:12.470Z,12.90
2018-10-19T01:57:40.565Z,12.93
2018-10-19T02:00:08.683Z,12.87
2018-10-19T02:02:36.779Z,12.85
2018-10-19T02:05:04.924Z,12.94
2018-10-19T02:07:32.999Z,12.99
2018-10-19T02:10:01.191Z,12.91
2018-10-19T02:12:29.392Z,12.94
2018-10-19T02:14:57.657Z,12.93
2018-10-19T02:17:25.722Z,12.96
2018-10-19T02:19:53.818Z,12.99
2018-10-19T02:22:21.925Z,12.92
2018-10-19T02:24:50.046Z,12.90
2018-10-19T02:27:18.144Z,12.98
2018-10-19T02:29:46.261Z,12.97
2018-10-19T02:32:14.371Z,12.91
2018-10-19T02:34:42.490Z,12.89
2018-10-19T02:37:10.604Z,12.95
2018-10-19T02:39:38.722Z,12.93
2018-10-19T02:42:06.836Z,13.01
2018-10-19T02:44:34.969Z,13.07
2018-10-19T02:47:03.081Z,13.03
2018-10-19T02:49:31.225Z,13.09
2018-10-19T02:51:59.305Z,13.19
2018-10-19T02:54:27.413Z,13.13
2018-10-19T02:56:55.577Z,13.08
2018-10-19T02:59:23.665Z,13.14
2018-10-19T03:01:51.755Z,13.06
2018-10-19T03:04:19.877Z,13.01
2018-10-19T03:06:47.964Z,13.10
2018-10-19T03:09:16.099Z,13.05
2018-10-19T03:11:44.197Z,13.25
2018-10-19T03:14:12.274Z,13.32
2018-10-19T03:16:40.355Z,13.23
2018-10-19T03:19:08.836Z,13.24
2018-10-19T03:21:36.974Z,13.27
2018-10-19T03:24:05.173Z,13.23
2018-10-19T03:26:33.307Z,13.26
2018-10-19T03:29:01.461Z,13.36
2018-10-19T03:31:29.588Z,13.39
2018-10-19T03:33:57.791Z,13.25
2018-10-19T03:36:25.893Z,13.27
2018-10-19T03:38:54.222Z,13.38
2018-10-19T03:41:22.358Z,13.41
2018-10-19T03:43:50.483Z,13.41
2018-10-19T03:46:18.742Z,13.35
2018-10-19T03:48:46.839Z,13.34
2018-10-19T03:51:15.190Z,13.37
2018-10-19T03:53:43.299Z,13.36
2018-10-19T03:56:11.463Z,13.41
2018-10-19T03:58:39.579Z,13.39
2018-10-19T04:01:07.783Z,13.46
2018-10-19T04:03:36.084Z,13.52
2018-10-19T04:06:04.222Z,13.54
2018-10-19T04:08:32.343Z,13.53
2018-10-19T04:11:00.483Z,13.47
2018-10-19T04:13:28.804Z,13.60
2018-10-19T04:15:56.912Z,13.51
2018-10-19T04:18:25.056Z,13.40
2018-10-19T04:20:53.405Z,13.43
2018-10-19T04:23:21.456Z,13.52
2018-10-19T04:25:49.689Z,13.43
2018-10-19T04:28:17.835Z,13.55
2018-10-19T04:30:45.991Z,13.50
2018-10-19T04:33:14.287Z,13.51
2018-10-19T04:35:42.339Z,13.53
2018-10-19T04:38:10.514Z,13.51
2018-10-19T04:40:38.636Z,13.55
2018-10-19T04:43:06.811Z,13.62
2018-10-19T04:45:34.916Z,13.66
2018-10-19T04:48:03.040Z,13.67
2018-10-19T04:50:31.164Z,13.62
2018-10-19T04:52:59.296Z,13.70
2018-10-19T04:55:27.408Z,13.68
2018-10-19T04:57:55.517Z,13.72
2018-10-19T05:00:23.674Z,13.69
2018-10-19T05:02:52.231Z,13.69
2018-10-19T05:05:20.780Z,13.58
2018-10-19T05:07:48.620Z,13.65
2018-10-19T05:10:16.719Z,13.67
2018-10-19T05:12:44.901Z,13.62
2018-10-19T05:15:12.977Z,13.65
2018-10-19T05:17:41.115Z,13.60
2018-10-19T05:20:11.088Z,13.63
2018-10-19T05:22:39.270Z,13.61
2018-10-19T05:25:09.264Z,13.59
2018-10-19T05:27:37.447Z,13.58
2018-10-19T05:30:07.057Z,13.66
2018-10-19T05:32:35.151Z,13.69
2018-10-19T05:35:03.351Z,13.56
2018-10-19T05:37:31.951Z,13.55
2018-10-19T05:40:00.575Z,13.48
2018-10-19T05:42:28.719Z,13.38
2018-10-19T05:44:56.857Z,13.37
2018-10-19T05:47:25.049Z,13.39
2018-10-19T05:49:53.160Z,13.45
2018-10-19T05:52:21.279Z,13.37
2018-10-19T05:54:49.383Z,13.33
2018-10-19T05:57:17.564Z,13.34
2018-10-19T05:59:45.683Z,13.38
2018-10-19T06:02:13.926Z,13.35
2018-10-19T06:04:41.945Z,13.23
2018-10-19T06:07:10.081Z,13.18
2018-10-19T06:09:38.192Z,13.20
2018-10-19T06:12:06.536Z,13.21
2018-10-19T06:14:34.644Z,13.15
2018-10-19T06:17:02.896Z,13.15
2018-10-19T06:19:30.963Z,13.08
2018-10-19T06:21:59.139Z,13.12
2018-10-19T06:24:27.304Z,13.12
2018-10-19T06:26:55.476Z,13.12
2018-10-19T06:29:23.608Z,13.26
2018-10-19T06:31:51.758Z,13.29
2018-10-19T06:34:19.900Z,13.18
2018-10-19T06:36:48.015Z,13.11
2018-10-19T06:39:16.131Z,13.11
2018-10-19T06:41:44.236Z,13.11
2018-10-19T06:44:12.401Z,13.14
2018-10-19T06:46:40.476Z,13.10
2018-10-19T06:49:08.636Z,13.12
2018-10-19T06:51:36.868Z,13.15
2018-10-19T06:54:05.150Z,13.18
2018-10-19T06:56:33.267Z,13.14
2018-10-19T06:59:01.483Z,13.16
2018-10-19T07:01:29.507Z,13.32
2018-10-19T07:03:57.657Z,13.42
2018-10-19T07:06:25.776Z,13.30
2018-10-19T07:08:53.961Z,13.25
2018-10-19T07:11:22.284Z,13.21
2018-10-19T07:13:50.387Z,13.25
2018-10-19T07:16:18.497Z,13.21
2018-10-19T07:18:46.667Z,13.26
2018-10-19T07:21:14.719Z,13.30
2018-10-19T07:23:42.828Z,13.30
2018-10-19T07:26:10.979Z,13.22
2018-10-19T07:28:45.801Z,13.31
2018-10-19T07:31:13.967Z,13.30
2018-10-19T07:33:42.088Z,13.43
2018-10-19T07:36:10.207Z,13.41
2018-10-19T07:38:38.330Z,13.47
2018-10-19T07:41:06.570Z,13.38
2018-10-19T07:43:34.640Z,13.47
2018-10-19T07:46:02.763Z,13.53
2018-10-19T07:48:30.897Z,13.58
2018-10-19T07:50:58.989Z,13.55
2018-10-19T07:53:27.171Z,13.69
2018-10-19T07:55:55.328Z,13.64
2018-10-19T07:58:23.418Z,13.73
2018-10-19T08:00:51.556Z,13.85
2018-10-19T08:03:19.644Z,13.78
2018-10-19T08:05:47.837Z,13.94
2018-10-19T08:08:15.930Z,14.08
2018-10-19T08:10:44.124Z,14.11
2018-10-19T08:13:12.199Z,14.06
2018-10-19T08:15:40.305Z,14.19
2018-10-19T08:18:08.498Z,14.18
2018-10-19T08:20:36.607Z,14.25
2018-10-19T08:23:04.827Z,14.36
2018-10-19T08:25:32.896Z,14.31
2018-10-19T08:28:01.076Z,14.37
2018-10-19T08:30:29.223Z,14.42
2018-10-19T08:32:57.372Z,14.51
2018-10-19T08:35:25.495Z,14.51
2018-10-19T08:37:53.692Z,14.55
2018-10-19T08:40:21.803Z,14.56
2018-10-19T08:42:49.908Z,14.59
2018-10-19T08:45:18.177Z,14.71
2018-10-19T08:47:46.245Z,14.71
2018-10-19T08:50:14.284Z,14.87
2018-10-19T08:52:42.399Z,14.88
2018-10-19T08:55:10.539Z,14.96
2018-10-19T08:57:38.672Z,14.97
2018-10-19T09:00:08.680Z,15.05
2018-10-19T09:02:36.776Z,15.11
2018-10-19T09:05:05.063Z,15.13
2018-10-19T09:07:33.165Z,15.20
2018-10-19T09:10:01.260Z,15.25
2018-10-19T09:12:29.379Z,15.30
2018-10-19T09:14:59.893Z,15.36
2018-10-19T09:17:27.979Z,15.34
2018-10-19T09:19:56.087Z,15.43
2018-10-19T09:22:24.195Z,15.47
2018-10-19T09:24:52.585Z,15.47
2018-10-19T09:27:20.888Z,15.47
2018-10-19T09:29:49.023Z,15.52
2018-10-19T09:32:17.575Z,15.57
2018-10-19T09:34:45.743Z,15.58
2018-10-19T09:37:14.238Z,15.73
2018-10-19T09:39:42.339Z,15.89
2018-10-19T09:42:10.995Z,15.94
2018-10-19T09:44:39.040Z,15.99
2018-10-19T09:47:07.410Z,16.05
2018-10-19T09:49:35.491Z,16.15
2018-10-19T09:52:03.611Z,15.98
2018-10-19T09:54:31.795Z,16.17
2018-10-19T09:56:59.954Z,16.14
2018-10-19T09:59:28.003Z,16.17
2018-10-19T10:01:56.122Z,16.25
2018-10-19T10:04:24.227Z,16.36
2018-10-19T10:06:52.320Z,16.41
2018-10-19T10:09:20.445Z,16.40
2018-10-19T10:11:48.556Z,16.48
2018-10-19T10:14:16.675Z,16.53
2018-10-19T10:16:44.770Z,16.60
2018-10-19T10:19:12.926Z,16.65
2018-10-19T10:21:40.977Z,16.71
2018-10-19T10:24:09.075Z,16.72
2018-10-19T10:26:37.170Z,16.77
2018-10-19T10:29:05.739Z,16.87
2018-10-19T10:31:33.848Z,16.81
2018-10-19T10:34:02.102Z,16.90
2018-10-19T10:36:30.155Z,16.92
2018-10-19T10:38:58.352Z,17.00
2018-10-19T10:41:26.537Z,16.97
2018-10-19T10:43:54.812Z,17.02
2018-10-19T10:46:22.958Z,16.85
2018-10-19T10:48:51.113Z,16.90
2018-10-19T10:51:19.214Z,17.08
2018-10-19T10:53:47.321Z,16.98
2018-10-19T10:56:15.432Z,17.18
2018-10-19T10:58:43.545Z,17.19
2018-10-19T11:01:11.718Z,17.33
2018-10-19T11:03:39.730Z,17.33
2018-10-19T11:06:07.830Z,17.35
2018-10-19T11:08:35.935Z,17.49
2018-10-19T11:11:07.475Z,17.49
2018-10-19T11:13:35.688Z,17.45
2018-10-19T11:16:03.839Z,17.57
2018-10-19T11:18:31.920Z,17.61
2018-10-19T11:21:00.049Z,17.65
2018-10-19T11:23:28.148Z,17.66
2018-10-19T11:25:56.251Z,17.65
2018-10-19T11:28:24.351Z,17.51
2018-10-19T11:30:52.513Z,17.61
2018-10-19T11:33:20.716Z,17.71
2018-10-19T11:35:48.833Z,17.73
2018-10-19T11:38:16.929Z,17.84
2018-10-19T11:40:45.048Z,18.01
2018-10-19T11:43:13.228Z,18.01
2018-10-19T11:45:41.316Z,18.08
2018-10-19T11:48:09.427Z,18.02
2018-10-19T11:50:37.549Z,18.07
2018-10-19T11:53:05.737Z,18.09
2018-10-19T11:55:33.841Z,18.20
2018-10-19T11:58:01.971Z,18.26
2018-10-19T12:00:30.051Z,18.27
2018-10-19T12:02:58.156Z,18.27
2018-10-19T12:05:26.254Z,18.28
2018-10-19T12:07:54.352Z,18.22
2018-10-19T12:10:22.462Z,18.20
2018-10-19T12:12:50.568Z,18.28
2018-10-19T12:15:18.844Z,18.38
2018-10-19T12:17:47.071Z,18.46
2018-10-19T12:20:17.511Z,18.60
2018-10-19T12:22:45.606Z,18.57
2018-10-19T12:25:14.640Z,18.52
2018-10-19T12:27:42.844Z,18.51
2018-10-19T12:30:11.653Z,18.52
2018-10-19T12:32:40.143Z,18.65
2018-10-19T12:35:09.864Z,18.72
2018-10-19T12:37:38.039Z,18.68
2018-10-19T12:40:06.999Z,18.69
2018-10-19T12:42:35.405Z,18.81
2018-10-19T12:45:03.597Z,18.87
2018-10-19T12:47:38.592Z,19.00
2018-10-19T12:50:13.300Z,18.87
2018-10-19T12:52:41.406Z,18.82
2018-10-19T12:55:09.551Z,18.85
2018-10-19T12:57:37.710Z,18.96
2018-10-19T13:00:07.026Z,19.14
2018-10-19T13:02:35.141Z,19.06
2018-10-19T13:05:03.287Z,18.93
2018-10-19T13:07:31.411Z,19.04
2018-10-19T13:09:59.529Z,19.06
2018-10-19T13:12:27.640Z,19.09
2018-10-19T13:14:55.751Z,19.02
2018-10-19T13:17:23.848Z,18.95
2018-10-19T13:19:51.950Z,18.88
2018-10-19T13:22:20.071Z,19.00
2018-10-19T13:24:48.168Z,19.09
2018-10-19T13:27:16.326Z,19.15
2018-10-19T13:29:44.356Z,18.99
2018-10-19T13:32:12.480Z,18.99
2018-10-19T13:34:40.606Z,19.01
2018-10-19T13:37:08.734Z,19.04
2018-10-19T13:39:36.872Z,19.03
2018-10-19T13:42:05.107Z,19.04
2018-10-19T13:44:33.224Z,19.04
2018-10-19T13:47:01.348Z,19.11
2018-10-19T13:49:29.548Z,19.17
2018-10-19T13:51:57.700Z,19.15
2018-10-19T13:54:25.819Z,19.09
2018-10-19T13:56:53.959Z,19.03
2018-10-19T13:59:22.041Z,18.99
2018-10-19T14:01:50.147Z,19.01
2018-10-19T14:04:18.237Z,19.01
2018-10-19T14:06:46.318Z,19.00
2018-10-19T14:09:14.498Z,18.95
2018-10-19T14:11:42.560Z,19.00
2018-10-19T14:14:10.657Z,18.91
2018-10-19T14:16:38.776Z,18.93
2018-10-19T14:19:06.911Z,18.91
2018-10-19T14:21:35.022Z,18.96
2018-10-19T14:24:03.140Z,19.06
2018-10-19T14:26:31.367Z,19.07
2018-10-19T14:28:59.463Z,18.93
2018-10-19T14:31:27.573Z,18.95
2018-10-19T14:33:55.655Z,18.98
2018-10-19T14:36:23.858Z,19.11
2018-10-19T14:38:51.946Z,19.13
2018-10-19T14:41:20.048Z,19.08
2018-10-19T14:43:48.140Z,19.08
2018-10-19T14:46:16.262Z,19.02
2018-10-19T14:48:44.412Z,19.08
2018-10-19T14:51:12.528Z,19.04
2018-10-19T14:53:40.575Z,18.99
2018-10-19T14:56:08.729Z,19.00
2018-10-19T14:58:36.844Z,18.99
2018-10-19T15:01:05.287Z,18.94
2018-10-19T15:03:33.379Z,19.05
2018-10-19T15:06:01.693Z,18.86
2018-10-19T15:08:29.798Z,18.91
2018-10-19T15:10:58.193Z,18.83
2018-10-19T15:13:26.100Z,18.95
2018-10-19T15:15:54.253Z,18.97
2018-10-19T15:18:22.392Z,18.91
2018-10-19T15:20:50.557Z,18.82
2018-10-19T15:23:18.694Z,18.95
2018-10-19T15:25:46.814Z,18.89
2018-10-19T15:28:14.937Z,18.89
2018-10-19T15:30:43.064Z,18.85
2018-10-19T15:33:11.279Z,18.80
2018-10-19T15:35:39.383Z,18.73
2018-10-19T15:38:07.527Z,18.85
2018-10-19T15:40:35.782Z,18.71
2018-10-19T15:43:03.990Z,18.59
2018-10-19T15:45:32.104Z,18.59
2018-10-19T15:48:00.222Z,18.53
2018-10-19T15:50:28.312Z,18.58
2018-10-19T15:52:56.483Z,18.53
2018-10-19T15:55:24.564Z,18.57
2018-10-19T15:57:52.767Z,18.48
2018-10-19T16:00:21.031Z,18.35
2018-10-19T16:02:49.045Z,18.44
2018-10-19T16:05:17.176Z,18.41
2018-10-19T16:07:45.463Z,18.34
2018-10-19T16:10:13.684Z,18.37
2018-10-19T16:12:41.739Z,18.33
2018-10-19T16:15:10.634Z,18.24
2018-10-19T16:17:38.818Z,18.24
2018-10-19T16:20:08.464Z,18.08
2018-10-19T16:22:36.596Z,18.14
2018-10-19T16:25:05.989Z,18.17
2018-10-19T16:27:34.217Z,18.17
2018-10-19T16:30:02.307Z,18.04
2018-10-19T16:32:30.353Z,17.94
2018-10-19T16:34:58.545Z,17.87
2018-10-19T16:37:26.712Z,17.82
2018-10-19T16:39:54.887Z,17.84
2018-10-19T16:42:23.024Z,17.82
2018-10-19T16:44:51.106Z,17.76
2018-10-19T16:47:19.249Z,17.66
2018-10-19T16:49:47.407Z,17.70
2018-10-19T16:52:15.608Z,17.53
2018-10-19T16:54:43.636Z,17.42
2018-10-19T16:57:11.818Z,17.51
2018-10-19T16:59:39.867Z,17.44
2018-10-19T17:02:31.195Z,17.33
2018-10-19T17:05:02.673Z,17.36
2018-10-19T17:07:34.741Z,17.33
2018-10-19T17:10:05.962Z,17.24
2018-10-19T17:15:25.229Z,17.13
2018-10-19T17:17:53.825Z,17.08
2018-10-19T17:20:22.646Z,17.05
2018-10-19T17:22:52.803Z,17.05
2018-10-19T17:25:21.976Z,17.09
2018-10-19T17:27:50.561Z,17.01
2018-10-19T17:30:19.895Z,16.93
2018-10-19T17:32:49.779Z,16.81
2018-10-19T17:35:18.121Z,16.90
2018-10-19T17:37:48.255Z,16.90
2018-10-19T17:40:17.457Z,16.79
2018-10-19T17:42:46.827Z,16.74
2018-10-19T17:45:15.171Z,16.77
2018-10-19T17:47:43.434Z,16.61
2018-10-19T17:50:11.710Z,16.68
2018-10-19T17:52:40.477Z,16.73
2018-10-19T17:55:13.496Z,16.71
2018-10-19T17:57:43.649Z,16.54
2018-10-19T18:00:13.067Z,16.47
2018-10-19T18:02:41.801Z,16.34
2018-10-19T18:05:11.203Z,16.00
2018-10-19T18:07:40.513Z,15.61
2018-10-19T18:10:08.869Z,15.35
2018-10-19T18:12:37.795Z,15.27
2018-10-19T18:15:06.872Z,15.65
2018-10-19T18:17:36.095Z,15.75
2018-10-19T18:20:06.403Z,15.85
2018-10-19T18:22:35.177Z,15.85
2018-10-19T18:25:03.574Z,15.75
2018-10-19T18:27:31.850Z,15.65
2018-10-19T18:30:01.201Z,15.70
2018-10-19T18:32:30.924Z,15.73
2018-10-19T18:34:59.526Z,15.85
2018-10-19T18:37:28.513Z,15.72
2018-10-19T18:39:57.624Z,15.80
2018-10-19T18:42:28.943Z,15.83
2018-10-19T18:44:58.171Z,15.71
2018-10-19T18:47:27.969Z,15.68
2018-10-19T18:49:57.450Z,15.66
2018-10-19T18:52:26.513Z,15.72
2018-10-19T18:54:54.829Z,15.79
2018-10-19T18:57:25.824Z,15.62
2018-10-19T18:59:54.301Z,15.69
2018-10-19T19:02:31.268Z,15.75
2018-10-19T19:04:59.777Z,15.75
2018-10-19T19:07:30.188Z,15.87
2018-10-19T19:10:04.911Z,16.00
2018-10-19T19:12:33.514Z,15.98
2018-10-19T19:15:02.109Z,15.90
2018-10-19T19:17:30.786Z,15.77
2018-10-19T19:20:32.889Z,15.71
2018-10-19T19:23:01.702Z,15.54
2018-10-19T19:26:39.254Z,15.52
2018-10-19T19:29:09.083Z,15.53
2018-10-19T19:31:41.889Z,15.52
2018-10-19T19:34:15.480Z,15.80
2018-10-19T19:36:47.853Z,15.88
2018-10-19T19:39:17.328Z,16.01
2018-10-19T19:41:52.569Z,16.09
2018-10-19T19:44:24.121Z,16.16
2018-10-19T19:46:53.152Z,16.12
2018-10-19T19:49:27.654Z,16.20
2018-10-19T19:51:56.216Z,16.13
2018-10-19T19:54:25.091Z,16.08
2018-10-19T19:56:54.722Z,16.05
2018-10-19T19:59:24.412Z,16.02
2018-10-19T20:01:53.677Z,15.99
2018-10-19T20:04:22.708Z,15.94
2018-10-19T20:06:52.538Z,15.84
2018-10-19T20:09:21.742Z,15.88
2018-10-19T20:11:50.125Z,16.04
2018-10-19T20:14:18.634Z,16.23
2018-10-19T20:16:49.570Z,16.23
2018-10-19T20:19:17.928Z,16.21
2018-10-19T20:21:46.925Z,16.20
2018-10-19T20:24:16.212Z,16.20
2018-10-19T20:26:49.154Z,16.20
2018-10-19T20:29:19.462Z,16.30
2018-10-19T20:31:49.225Z,16.28
2018-10-19T20:34:18.408Z,16.26
2018-10-19T20:36:47.336Z,16.26
2018-10-19T20:39:17.309Z,16.25
2018-10-19T20:41:46.879Z,16.17
2018-10-19T20:44:17.808Z,16.17
2018-10-19T20:46:48.247Z,16.15
2018-10-19T20:49:17.768Z,16.18
2018-10-19T20:51:51.694Z,16.14
2018-10-19T20:54:21.204Z,16.15
2018-10-19T20:56:56.497Z,16.10
2018-10-19T20:59:28.801Z,16.08
2018-10-19T21:02:01.271Z,15.85
2018-10-19T21:04:33.753Z,15.88
2018-10-19T21:07:03.431Z,15.77
2018-10-19T21:09:32.418Z,15.76
2018-10-19T21:12:00.666Z,15.68
2018-10-19T21:14:30.769Z,15.51
2018-10-19T21:16:59.472Z,15.47
2018-10-19T21:19:31.019Z,15.20
2018-10-19T21:22:02.871Z,14.97
2018-10-19T21:24:32.580Z,14.65
2018-10-19T21:27:01.687Z,14.32
2018-10-19T21:29:30.902Z,14.32
2018-10-19T21:31:59.710Z,14.32
2018-10-19T21:34:29.842Z,14.02
2018-10-19T21:37:00.055Z,13.99
2018-10-19T21:39:28.340Z,14.29
2018-10-19T21:41:59.467Z,14.60
2018-10-19T21:44:29.599Z,14.89
2018-10-19T21:46:58.651Z,14.84
2018-10-19T21:49:28.879Z,14.50
2018-10-19T21:51:58.671Z,14.28
2018-10-19T21:54:27.847Z,13.86
2018-10-19T21:56:56.466Z,13.68
2018-10-19T21:59:24.783Z,13.35
2018-10-19T22:01:53.868Z,13.06
2018-10-19T22:04:28.400Z,13.00
2018-10-19T22:06:59.104Z,12.98
2018-10-19T22:09:29.141Z,12.92
2018-10-19T22:11:58.460Z,12.86
2018-10-19T22:14:27.920Z,12.84
2018-10-19T22:16:56.842Z,12.90
2018-10-19T22:19:25.114Z,12.88
2018-10-19T22:21:53.590Z,12.90
2018-10-19T22:24:22.214Z,12.83
2018-10-19T22:26:51.872Z,12.80
2018-10-19T22:29:20.809Z,12.76
2018-10-19T22:31:49.630Z,12.75
2018-10-19T22:34:18.359Z,12.73
2018-10-19T22:36:46.718Z,12.72
2018-10-19T22:39:15.638Z,12.71
2018-10-19T22:41:45.043Z,12.79
2018-10-19T22:44:14.562Z,12.79
2018-10-19T22:46:45.262Z,12.81
2018-10-19T22:49:14.886Z,12.88
2018-10-19T22:51:45.613Z,13.01
2018-10-19T22:54:14.343Z,13.06
2018-10-19T22:56:43.945Z,13.16
2018-10-19T22:59:12.196Z,13.22
2018-10-19T23:01:43.011Z,13.31
2018-10-19T23:04:12.360Z,13.40
2018-10-19T23:06:44.831Z,13.52
2018-10-19T23:09:13.914Z,13.58
2018-10-19T23:11:42.288Z,13.54
2018-10-19T23:14:11.548Z,13.43
2018-10-19T23:16:39.778Z,13.56
2018-10-19T23:19:08.574Z,13.64
2018-10-19T23:21:36.636Z,13.77
2018-10-19T23:24:05.363Z,13.87
2018-10-19T23:26:33.483Z,14.00
2018-10-19T23:29:01.670Z,14.03
2018-10-19T23:31:29.969Z,14.26
2018-10-19T23:33:57.836Z,14.38
2018-10-19T23:36:26.061Z,14.38
2018-10-19T23:38:54.180Z,14.33
2018-10-19T23:41:22.268Z,14.05
2018-10-19T23:43:50.461Z,13.92
2018-10-19T23:46:18.519Z,13.87
2018-10-19T23:48:46.627Z,13.79
2018-10-19T23:51:14.736Z,13.72
2018-10-19T23:53:42.836Z,13.68
2018-10-19T23:56:10.935Z,13.57
2018-10-19T23:58:39.036Z,13.52
